Accueil
METAR-TAF:

METAR-TAF

Aéroports :

Aéroport de Friedrichshafen

Friedrichshafen, Allemagne

latitude: 47-40N, longitude: 009-31E, altitude: 416 m

Observation

Le bulletin a été fait il y a 31 minutes, à 19:50 UTC
Vent 1 kt de direction variable
Température 7°C
Humidité 76%
Pression 1020 hPa
Visibilité 10 km ou plus

METAR: EDNY 071950Z AUTO VRB01KT 9999 // FEW054/// 07/03 Q1020

Heure: 22:21 (20:21 UTC)

Prévision

Le bulletin a été fait il y a 3 heures et 21 minutes, à 17:00 UTC
Prévision valable du 07 à 18 UTC au 08 à 18 UTC
Vent 7 kt de ouest/sud-ouest
Visibilité 10 km ou plus
pas de nuages en-dessous de 1500 mètres et pas de cumulonimbus.
Evoluant progressivement
du 07 à 21 UTC au 07 à 23 UTC
Vent 3 kt de nord-est
Evoluant progressivement
du 08 à 09 UTC au 08 à 11 UTC
Vent 5 kt de ouest/sud-ouest

TAF: EDNY 071700Z 0718/0818 25007KT CAVOK BECMG 0721/0723 05003KT BECMG 0809/0811 24005KT

Observations et prévisions météorologiques de plus de 4000 aéroports (messages METAR et TAF).

Les stations disponibles sont représentées par des disques jaunes et rouges sur la carte.

Passer la souris dessus pour voir le nom de la station.

Cliquer dessus pour voir les observations et prévisions météorologiques.

Pour changer de carte: cliquez sur les boutons verts avec une croix noire pour zoomer, sur le bouton vert avec un tiret pour effectuer un zoom arrière, ou sur les flèches vertes pour les cartes adjacentes.


METAR-TAF: